Time;durP1;ratioP1;P1;durP2;ratioP2;P2;SDS_P1;SDS_P2;PMS_P1;PMS_P2;Temp;Humidity;BMP_temperature;BMP_pressure;BME280_temperature;BME280_humidity;BME280_pressure;Samples;Min_cycle;Max_cycle;Signal;HPM_P1;HPM_P2
2022/07/05 00:01:56;;;;;;;2.42;1.90;;;;;;;30.81;43.50;101847.63;4148477;28;20062;-60
2022/07/05 00:03:57;;;;;;;2.10;1.85;;;;;;;30.80;43.97;101848.78;4148330;28;20420;-59
2022/07/05 00:05:59;;;;;;;3.70;1.90;;;;;;;30.79;43.90;101843.44;4148742;28;20042;-59
2022/07/05 00:08:04;;;;;;;1.98;1.77;;;;;;;30.81;43.90;101856.09;4147890;28;20077;-59
2022/07/05 00:10:06;;;;;;;1.92;1.80;;;;;;;30.80;43.77;101860.09;4148607;28;20038;-59
2022/07/05 00:12:08;;;;;;;1.92;1.83;;;;;;;30.81;43.88;101856.09;4148325;28;20485;-59
2022/07/05 00:14:12;;;;;;;2.05;1.85;;;;;;;30.80;43.56;101862.94;4148313;28;20371;-59
2022/07/05 00:16:14;;;;;;;2.17;1.83;;;;;;;30.80;43.57;101860.09;4148534;28;20489;-59
2022/07/05 00:18:15;;;;;;;2.17;1.80;;;;;;;30.80;43.56;101856.44;4148086;28;20088;-59
2022/07/05 00:20:16;;;;;;;1.77;1.67;;;;;;;30.75;43.49;101848.94;4148932;28;20050;-59
2022/07/05 00:22:18;;;;;;;1.98;1.77;;;;;;;30.79;43.69;101861.25;4148865;28;20077;-59
2022/07/05 00:24:19;;;;;;;1.90;1.80;;;;;;;30.78;43.68;101870.88;4148052;28;20041;-60
2022/07/05 00:26:23;;;;;;;3.47;2.13;;;;;;;30.78;43.68;101870.88;4147886;28;20038;-60
2022/07/05 00:28:25;;;;;;;2.40;1.80;;;;;;;30.78;43.59;101862.41;4147750;28;20045;-60
2022/07/05 00:30:26;;;;;;;2.40;2.20;;;;;;;30.78;43.43;101859.56;4148074;28;20470;-60
2022/07/05 00:32:27;;;;;;;1.88;1.70;;;;;;;30.78;43.32;101853.91;4147497;28;20042;-60
2022/07/05 00:34:29;;;;;;;2.13;1.90;;;;;;;30.77;43.49;101860.75;4147854;28;20046;-60
2022/07/05 00:36:33;;;;;;;2.22;2.03;;;;;;;30.78;43.48;101864.41;4148340;28;20042;-59
2022/07/05 00:38:36;;;;;;;2.58;2.25;;;;;;;30.77;43.59;101868.38;4147788;28;20100;-60
2022/07/05 00:40:38;;;;;;;2.50;2.30;;;;;;;30.77;43.38;101869.22;4148014;28;20038;-60
2022/07/05 00:42:39;;;;;;;2.00;1.80;;;;;;;30.69;43.36;101857.84;4148211;28;20540;-59
2022/07/05 00:44:41;;;;;;;1.90;1.80;;;;;;;30.78;43.57;101870.06;4147840;28;20042;-59
2022/07/05 00:46:45;;;;;;;2.13;2.00;;;;;;;30.78;43.67;101870.06;4148090;28;20038;-60
2022/07/05 00:48:46;;;;;;;2.50;2.30;;;;;;;30.77;43.45;101880.53;4147210;28;20124;-60
2022/07/05 00:50:51;;;;;;;2.45;2.25;;;;;;;30.77;43.70;101883.34;4147696;28;20038;-60
2022/07/05 00:52:53;;;;;;;;;;;;;;;30.75;43.49;101882.84;4148647;28;20026;-60
2022/07/05 00:54:54;;;;;;;2.53;2.33;;;;;;;30.83;43.33;101878.38;4147756;28;19968;-60
2022/07/05 00:56:56;;;;;;;2.70;2.50;;;;;;;30.82;43.76;101885.19;4148167;28;20042;-59
2022/07/05 00:58:58;;;;;;;2.60;2.40;;;;;;;30.79;43.68;101880.19;4147300;28;20520;-59
2022/07/05 01:01:03;;;;;;;2.40;2.20;;;;;;;30.75;43.65;101880.03;4148284;28;20084;-59
2022/07/05 01:03:04;;;;;;;2.45;2.10;;;;;;;30.78;43.78;101887.00;4147372;28;20104;-60
2022/07/05 01:05:06;;;;;;;2.70;2.35;;;;;;;30.77;44.03;101886.16;4147504;28;20050;-59
2022/07/05 01:07:07;;;;;;;2.40;2.20;;;;;;;30.77;44.10;101882.53;4147950;28;20321;-59
2022/07/05 01:09:12;;;;;;;2.78;2.58;;;;;;;30.76;43.80;101878.88;4147362;28;20112;-59
2022/07/05 01:11:14;;;;;;;2.83;2.38;;;;;;;30.76;44.16;101886.50;4147593;28;20041;-59
2022/07/05 01:13:16;;;;;;;3.15;2.67;;;;;;;30.76;44.44;101875.22;4148245;28;20034;-59
2022/07/05 01:15:20;;;;;;;3.03;2.72;;;;;;;30.77;44.36;101889.00;4148382;28;20046;-60
2022/07/05 01:17:22;;;;;;;2.85;2.53;;;;;;;30.77;44.11;101883.34;4147864;28;20099;-59
2022/07/05 01:19:24;;;;;;;2.30;2.10;;;;;;;30.71;44.34;101876.19;4150534;28;20080;-59
2022/07/05 01:21:27;;;;;;;3.72;3.10;;;;;;;30.78;44.25;101887.00;4150931;28;20112;-59
2022/07/05 01:23:30;;;;;;;2.80;2.60;;;;;;;30.70;44.27;101870.81;4150876;28;20077;-59
2022/07/05 01:25:32;;;;;;;2.90;2.60;;;;;;;30.77;44.33;101894.66;4150850;28;20621;-59
2022/07/05 01:27:33;;;;;;;2.80;2.60;;;;;;;30.77;44.33;101896.66;4150343;28;20112;-59
2022/07/05 01:29:35;;;;;;;2.90;2.60;;;;;;;30.72;44.09;101891.97;4150476;28;20477;-60
2022/07/05 01:31:43;;;;;;;3.15;2.63;;;;;;;30.74;44.11;101900.13;4151117;28;20119;-59
2022/07/05 01:33:44;;;;;;;3.15;2.78;;;;;;;30.77;43.91;101908.78;4150482;28;20232;-59
2022/07/05 01:35:45;;;;;;;3.50;3.20;;;;;;;30.76;44.06;101904.28;4151090;28;20042;-59
2022/07/05 01:37:48;;;;;;;3.20;2.90;;;;;;;30.71;43.79;101895.97;4150840;28;20049;-60
2022/07/05 01:39:52;;;;;;;3.47;2.97;;;;;;;30.76;43.86;101914.75;4150418;28;20092;-59
2022/07/05 01:41:54;;;;;;;4.00;2.33;;;;;;;30.76;43.97;101901.47;4150536;28;20045;-59
2022/07/05 01:43:55;;;;;;;2.85;2.60;;;;;;;30.70;43.87;101890.59;4150337;28;20042;-59
2022/07/05 01:46:00;;;;;;;3.03;2.65;;;;;;;30.77;44.16;101900.31;4150233;28;20527;-59
2022/07/05 01:48:16;;;;;;;3.42;2.72;;;;;;;30.74;44.24;101895.28;4150801;28;20042;-60
2022/07/05 01:50:21;;;;;;;2.95;2.75;;;;;;;30.77;44.30;101900.31;4150530;28;20122;-59
2022/07/05 01:52:28;;;;;;;3.10;2.80;;;;;;;30.77;44.43;101907.94;4150303;28;20065;-59
2022/07/05 01:54:29;;;;;;;3.33;3.03;;;;;;;30.77;44.53;101913.59;4150355;28;20092;-59
2022/07/05 01:56:33;;;;;;;2.85;2.65;;;;;;;30.76;44.19;101911.94;4150373;28;20053;-59
2022/07/05 01:58:38;;;;;;;3.20;2.70;;;;;;;30.74;44.44;101915.06;4150512;28;20033;-59
2022/07/05 02:00:48;;;;;;;;;;;;;;;30.75;44.39;101921.59;4150785;28;20099;-59
2022/07/05 02:02:50;;;;;;;3.95;3.10;;;;;;;30.82;44.51;101921.94;4150766;28;19983;-59
2022/07/05 02:04:51;;;;;;;3.80;2.90;;;;;;;30.81;44.28;101921.09;4150449;28;20468;-59
2022/07/05 02:06:53;;;;;;;3.80;3.40;;;;;;;30.77;44.30;101908.78;4150657;28;20812;-59
2022/07/05 02:08:54;;;;;;;3.47;2.90;;;;;;;30.79;44.42;101905.63;4149251;28;20062;-59
2022/07/05 02:10:57;;;;;;;3.50;3.20;;;;;;;30.77;44.31;101911.59;4150029;28;20085;-59
2022/07/05 02:12:58;;;;;;;3.50;3.20;;;;;;;30.78;44.31;101916.09;4150080;28;20478;-59
2022/07/05 02:15:00;;;;;;;4.28;3.55;;;;;;;30.77;44.56;101914.44;4150334;28;20046;-59
2022/07/05 02:17:04;;;;;;;4.25;3.38;;;;;;;30.76;44.16;101907.13;4150243;28;20543;-59
2022/07/05 02:19:11;;;;;;;3.70;3.20;;;;;;;30.77;44.19;101914.44;4149735;28;20094;-59
2022/07/05 02:21:13;;;;;;;4.00;3.58;;;;;;;30.73;44.04;101919.06;4150406;28;20037;-59
2022/07/05 02:23:17;;;;;;;3.25;2.95;;;;;;;30.77;44.26;101919.25;4148860;28;20050;-60
2022/07/05 02:25:19;;;;;;;3.42;3.13;;;;;;;30.77;44.43;101922.06;4149823;28;20120;-59
2022/07/05 02:27:20;;;;;;;4.95;3.33;;;;;;;30.75;44.53;101936.53;4149992;28;20190;-59
2022/07/05 02:29:21;;;;;;;3.97;3.50;;;;;;;30.76;44.54;101924.06;4148707;28;20045;-60
2022/07/05 02:31:23;;;;;;;4.25;3.85;;;;;;;30.74;44.39;101909.41;4149410;28;20108;-59
2022/07/05 02:33:27;;;;;;;4.07;3.60;;;;;;;30.75;44.48;101911.09;4150435;28;20030;-59
2022/07/05 02:35:28;;;;;;;5.25;4.75;;;;;;;30.75;44.39;101905.47;4149800;28;20042;-59
2022/07/05 02:37:30;;;;;;;4.40;4.00;;;;;;;30.76;44.07;101909.13;4150451;28;20092;-59
2022/07/05 02:39:31;;;;;;;4.72;4.32;;;;;;;30.76;43.77;101907.13;4149551;28;20477;-59
2022/07/05 02:41:33;;;;;;;4.95;4.45;;;;;;;30.74;44.18;101903.78;4149858;28;20464;-59
2022/07/05 02:43:35;;;;;;;5.97;4.32;;;;;;;30.74;43.96;101906.59;4150197;28;20465;-59
2022/07/05 02:45:39;;;;;;;5.47;3.72;;;;;;;30.71;43.55;101893.13;4149821;28;20104;-59
2022/07/05 02:47:40;;;;;;;4.97;4.10;;;;;;;30.74;43.74;101898.13;4149715;28;20046;-60
2022/07/05 02:49:42;;;;;;;4.55;4.15;;;;;;;30.74;43.72;101900.13;4149249;28;20157;-59
2022/07/05 02:51:43;;;;;;;4.85;4.35;;;;;;;30.74;43.83;101903.78;4149939;28;20050;-59
2022/07/05 02:53:44;;;;;;;5.18;4.47;;;;;;;30.73;44.18;101904.94;4150018;28;20500;-60
2022/07/05 02:55:46;;;;;;;4.82;4.30;;;;;;;30.74;43.81;101909.41;4148988;28;20478;-60
2022/07/05 02:57:48;;;;;;;4.95;4.45;;;;;;;30.73;44.20;101904.94;4149579;28;20034;-59
2022/07/05 02:59:53;;;;;;;4.90;4.40;;;;;;;30.73;43.98;101898.44;4148636;28;20092;-60
2022/07/05 03:01:57;;;;;;;5.50;4.75;;;;;;;30.73;43.82;101898.44;4149159;28;20445;-59
2022/07/05 03:04:00;;;;;;;4.43;4.00;;;;;;;30.74;44.00;101902.94;4149881;28;20088;-59
2022/07/05 03:06:01;;;;;;;4.63;4.22;;;;;;;30.70;43.93;101891.44;4149472;28;20092;-60
2022/07/05 03:08:06;;;;;;;4.55;3.80;;;;;;;30.73;43.91;101901.28;4148937;28;20038;-60
2022/07/05 03:10:07;;;;;;;4.45;3.90;;;;;;;30.71;44.15;101903.56;4149181;28;20058;-59
2022/07/05 03:12:09;;;;;;;4.40;4.03;;;;;;;30.72;43.71;101914.56;4149313;28;20037;-59
2022/07/05 03:14:10;;;;;;;4.35;3.95;;;;;;;30.73;43.80;101918.22;4149074;28;20046;-59
2022/07/05 03:16:14;;;;;;;4.55;3.95;;;;;;;30.71;43.96;101915.75;4149329;28;20097;-59
2022/07/05 03:18:16;;;;;;;4.45;4.05;;;;;;;30.72;43.89;101917.41;4148934;28;20042;-59
2022/07/05 03:20:17;;;;;;;4.38;3.97;;;;;;;30.73;43.88;101909.75;4149567;28;20129;-58
2022/07/05 03:22:19;;;;;;;4.68;4.22;;;;;;;30.72;44.38;101900.44;4149642;28;20030;-59
2022/07/05 03:24:20;;;;;;;5.65;4.22;;;;;;;30.72;43.77;101903.28;4149145;28;20120;-59
2022/07/05 03:26:21;;;;;;;4.45;4.05;;;;;;;30.71;44.03;101903.56;4149134;28;20037;-59
2022/07/05 03:28:26;;;;;;;4.47;3.97;;;;;;;30.70;44.07;101902.75;4148916;28;20070;-59
2022/07/05 03:30:30;;;;;;;4.43;4.03;;;;;;;30.72;44.12;101900.44;4148955;28;20041;-59
2022/07/05 03:32:31;;;;;;;4.75;4.28;;;;;;;30.71;44.15;101892.28;4148838;28;20370;-60
2022/07/05 03:34:32;;;;;;;4.85;4.32;;;;;;;30.71;43.46;101893.13;4149239;28;20042;-60
2022/07/05 03:36:34;;;;;;;4.63;3.90;;;;;;;30.70;43.60;101888.63;4149187;28;20050;-58
2022/07/05 03:38:38;;;;;;;4.60;4.20;;;;;;;30.71;43.66;101895.09;4148629;28;20109;-59
2022/07/05 03:40:42;;;;;;;5.95;4.35;;;;;;;30.70;44.07;101897.09;4148658;28;20045;-59
2022/07/05 03:42:44;;;;;;;5.03;4.53;;;;;;;30.70;43.68;101894.28;4147749;28;20046;-59
2022/07/05 03:44:45;;;;;;;4.75;4.18;;;;;;;30.63;43.85;101882.59;4146453;28;20092;-60
2022/07/05 03:46:46;;;;;;;5.32;4.50;;;;;;;30.70;43.89;101899.91;4149158;28;20127;-59
2022/07/05 03:48:48;;;;;;;5.68;4.45;;;;;;;30.69;43.54;101900.22;4148475;28;20069;-59
2022/07/05 03:50:52;;;;;;;5.13;4.47;;;;;;;30.70;43.59;101905.56;4149001;28;20046;-59
2022/07/05 03:52:54;;;;;;;5.53;4.20;;;;;;;30.67;43.61;101909.03;4148866;28;20054;-59
2022/07/05 03:54:55;;;;;;;5.18;4.57;;;;;;;30.69;44.00;101917.19;4148399;28;20042;-61
2022/07/05 03:56:57;;;;;;;5.03;4.47;;;;;;;30.69;43.81;101923.66;4148675;28;20485;-59
2022/07/05 03:58:58;;;;;;;5.00;4.50;;;;;;;30.68;44.02;101921.16;4148255;28;20041;-59
2022/07/05 04:01:00;;;;;;;5.03;4.53;;;;;;;30.69;43.85;101922.81;4148622;28;20046;-59
2022/07/05 04:03:01;;;;;;;4.55;4.13;;;;;;;30.68;43.95;101922.00;4147877;28;20045;-59
2022/07/05 04:05:09;;;;;;;5.50;4.95;;;;;;;30.67;43.65;101923.16;4148874;28;20038;-59
2022/07/05 04:07:13;;;;;;;4.90;4.40;;;;;;;30.65;43.91;101917.00;4148567;28;20053;-59
2022/07/05 04:09:14;;;;;;;4.70;4.20;;;;;;;30.69;43.98;101922.81;4148430;28;20038;-59
2022/07/05 04:11:16;;;;;;;5.35;4.63;;;;;;;30.68;43.51;101922.00;4148328;28;20108;-59
2022/07/05 04:13:17;;;;;;;4.95;4.40;;;;;;;30.68;43.62;101927.66;4148738;28;20037;-59
2022/07/05 04:15:25;;;;;;;5.43;4.93;;;;;;;30.68;43.57;101927.66;4148699;28;20080;-59
2022/07/05 04:17:26;;;;;;;5.07;4.35;;;;;;;30.68;43.90;101927.66;4148972;28;20021;-59
2022/07/05 04:19:28;;;;;;;5.63;5.03;;;;;;;30.68;44.08;101922.00;4148052;28;20072;-59
2022/07/05 04:21:29;;;;;;;4.38;3.92;;;;;;;30.65;43.67;101911.34;4148659;28;20366;-59
2022/07/05 04:23:31;;;;;;;4.57;4.10;;;;;;;30.67;43.94;101909.03;4147790;28;20096;-59
2022/07/05 04:25:35;;;;;;;4.78;4.30;;;;;;;30.67;43.78;101914.69;4148005;28;20034;-58
2022/07/05 04:27:41;;;;;;;6.25;4.63;;;;;;;30.67;43.62;101900.56;4148511;28;20061;-59
2022/07/05 04:29:43;;;;;;;5.57;4.32;;;;;;;30.67;43.80;101903.38;4147792;28;20449;-59
2022/07/05 04:31:44;;;;;;;4.35;3.72;;;;;;;30.67;43.84;101913.84;4148153;28;20436;-59
2022/07/05 04:33:45;;;;;;;5.22;4.72;;;;;;;30.66;43.89;101907.38;4148644;28;20111;-58
2022/07/05 04:35:47;;;;;;;5.22;4.72;;;;;;;30.67;43.85;101911.03;4148137;28;20042;-58
2022/07/05 04:37:49;;;;;;;5.20;4.68;;;;;;;30.65;43.83;101911.34;4148365;28;20115;-59
2022/07/05 04:39:50;;;;;;;5.22;4.72;;;;;;;30.66;43.79;101904.56;4148047;28;20042;-59
2022/07/05 04:41:51;;;;;;;5.00;4.43;;;;;;;30.64;43.64;101889.91;4148135;28;20042;-59
2022/07/05 04:43:53;;;;;;;4.43;4.03;;;;;;;30.65;43.71;101894.38;4148181;28;20041;-59
2022/07/05 04:45:54;;;;;;;4.30;3.83;;;;;;;30.65;43.69;101894.38;4148019;28;20042;-59
2022/07/05 04:48:04;;;;;;;4.50;4.07;;;;;;;30.65;43.96;101888.72;4147556;28;20038;-59
2022/07/05 04:50:07;;;;;;;4.90;4.40;;;;;;;30.65;43.89;101905.69;4146157;28;20046;-59
2022/07/05 04:52:08;;;;;;;5.13;4.63;;;;;;;30.65;43.77;101905.69;4147878;28;20088;-59
2022/07/05 04:54:15;;;;;;;6.20;4.88;;;;;;;30.63;43.78;101908.03;4147550;28;20041;-59
2022/07/05 04:56:16;;;;;;;4.32;3.85;;;;;;;30.55;43.34;101891.84;4147981;28;20037;-59
2022/07/05 04:58:18;;;;;;;6.05;4.70;;;;;;;30.63;43.50;101906.03;4147338;28;20092;-59
2022/07/05 05:00:19;;;;;;;4.72;4.22;;;;;;;30.63;43.30;101891.06;4148107;28;20045;-59
2022/07/05 05:02:21;;;;;;;4.75;4.30;;;;;;;30.63;43.02;101886.25;4148112;28;20048;-59
2022/07/05 05:04:22;;;;;;;6.22;4.40;;;;;;;30.63;43.60;101893.88;4147695;28;20034;-59
2022/07/05 05:06:23;;;;;;;4.82;4.20;;;;;;;30.63;43.72;101893.88;4147830;28;20038;-59
2022/07/05 05:08:27;;;;;;;5.15;4.65;;;;;;;30.59;43.42;101904.16;4147694;28;20060;-58
2022/07/05 05:10:31;;;;;;;4.78;4.28;;;;;;;30.61;43.60;101904.69;4146979;28;20440;-59
2022/07/05 05:12:32;;;;;;;4.78;4.38;;;;;;;30.61;43.81;101893.41;4147690;28;20054;-59
2022/07/05 05:14:33;;;;;;;4.30;3.90;;;;;;;30.57;43.69;101887.56;4148016;28;20555;-59
2022/07/05 05:16:38;;;;;;;4.60;4.15;;;;;;;30.59;43.61;101884.41;4147706;28;20125;-59
2022/07/05 05:18:39;;;;;;;4.40;4.00;;;;;;;30.62;43.44;101889.41;4147531;28;20046;-59
2022/07/05 05:20:40;;;;;;;4.53;4.13;;;;;;;30.61;43.17;101894.22;4147618;28;20096;-59
2022/07/05 05:22:45;;;;;;;5.00;4.53;;;;;;;30.61;43.81;101890.56;4147585;28;20485;-59
2022/07/05 05:24:46;;;;;;;5.20;4.70;;;;;;;30.60;43.52;101886.06;4147559;28;20104;-59
2022/07/05 05:26:49;;;;;;;4.70;4.20;;;;;;;30.60;43.67;101886.06;4147559;28;20038;-59
2022/07/05 05:28:51;;;;;;;4.72;4.00;;;;;;;30.52;44.03;101867.09;4147571;28;20054;-59
2022/07/05 05:30:55;;;;;;;4.78;4.20;;;;;;;30.58;43.73;101877.91;4147598;28;20042;-59
2022/07/05 05:32:59;;;;;;;4.55;4.10;;;;;;;30.59;43.82;101882.41;4147584;28;20112;-59
2022/07/05 05:35:04;;;;;;;5.00;4.50;;;;;;;30.59;43.41;101884.41;4146895;28;20034;-59
2022/07/05 05:37:05;;;;;;;4.80;4.38;;;;;;;30.59;43.40;101878.75;4147955;28;20100;-59
2022/07/05 05:41:31;;;;;;;4.45;4.05;;;;;;;30.59;43.47;101884.41;4146919;28;20465;-58
2022/07/05 05:43:32;;;;;;;4.88;4.20;;;;;;;30.59;43.51;101875.91;4147701;28;20096;-59
2022/07/05 05:45:39;;;;;;;4.85;4.45;;;;;;;30.58;43.80;101871.44;4147045;28;20050;-59
2022/07/05 05:47:59;;;;;;;5.43;4.53;;;;;;;30.55;43.51;101863.59;4147422;28;20046;-58
2022/07/05 05:50:01;;;;;;;5.03;4.55;;;;;;;30.58;43.86;101862.97;4147672;28;20041;-58
2022/07/05 05:52:02;;;;;;;4.45;4.05;;;;;;;30.58;43.65;101871.44;4148083;28;20046;-59
2022/07/05 05:54:04;;;;;;;4.40;4.00;;;;;;;30.58;43.80;101866.63;4147378;28;20042;-59
2022/07/05 05:56:05;;;;;;;4.55;3.67;;;;;;;30.58;43.50;101882.75;4147040;28;20100;-58
2022/07/05 05:58:26;;;;;;;4.72;4.32;;;;;;;30.57;43.49;101892.38;4146604;28;20054;-58
2022/07/05 06:00:27;;;;;;;4.43;3.78;;;;;;;30.58;43.42;101905.34;4147352;28;20092;-59
2022/07/05 06:02:28;;;;;;;4.15;3.75;;;;;;;30.57;43.59;101895.19;4147715;28;20092;-59
2022/07/05 06:04:30;;;;;;;4.50;4.10;;;;;;;30.56;43.32;101888.72;4148797;28;20497;-59
2022/07/05 06:06:34;;;;;;;4.30;3.90;;;;;;;30.55;43.63;101877.72;4149907;28;20437;-59
2022/07/05 06:08:35;;;;;;;4.22;3.85;;;;;;;30.56;43.27;101870.91;4149922;28;20432;-59
2022/07/05 06:10:38;;;;;;;4.00;3.70;;;;;;;30.55;43.49;101860.78;4150453;28;20080;-59
2022/07/05 06:12:39;;;;;;;4.57;4.03;;;;;;;30.54;43.50;101854.31;4147474;28;20046;-59
2022/07/05 06:14:40;;;;;;;4.57;4.05;;;;;;;30.54;43.33;101854.31;4150255;28;20548;-59
2022/07/05 06:16:42;;;;;;;5.22;3.72;;;;;;;30.55;43.67;101857.97;4150184;28;20042;-59
2022/07/05 06:18:43;;;;;;;4.53;3.60;;;;;;;30.54;43.42;101859.13;4150175;28;20485;-59
2022/07/05 06:20:45;;;;;;;4.40;3.70;;;;;;;30.54;43.78;101864.78;4150356;28;20482;-59
2022/07/05 06:22:47;;;;;;;5.28;3.90;;;;;;;30.49;43.45;101851.63;4150031;28;20505;-59
2022/07/05 06:24:49;;;;;;;4.07;3.67;;;;;;;30.55;43.82;101863.59;4149859;28;20387;-60
2022/07/05 06:26:53;;;;;;;4.35;3.80;;;;;;;30.54;43.55;101859.13;4150180;28;20034;-59
2022/07/05 06:28:54;;;;;;;4.53;4.03;;;;;;;30.53;43.88;101846.16;4149393;28;20096;-59
2022/07/05 06:30:56;;;;;;;4.78;4.28;;;;;;;30.53;43.54;101846.16;4150332;28;20409;-59
2022/07/05 06:32:58;;;;;;;4.47;4.05;;;;;;;30.54;43.54;101847.81;4149897;28;20098;-59
2022/07/05 06:35:02;;;;;;;4.95;3.58;;;;;;;30.53;43.42;101849.81;4149355;28;20104;-59
2022/07/05 06:37:03;;;;;;;4.15;3.75;;;;;;;30.46;43.77;101834.50;4149919;28;20444;-59
2022/07/05 06:39:05;;;;;;;4.50;4.10;;;;;;;30.53;43.43;101847.00;4148549;28;20034;-59
2022/07/05 06:41:06;;;;;;;4.40;4.00;;;;;;;30.53;43.36;101844.16;4149872;28;20038;-59
2022/07/05 06:43:09;;;;;;;4.80;3.90;;;;;;;30.53;43.37;101837.69;4149261;28;20553;-59
2022/07/05 06:45:11;;;;;;;5.82;4.25;;;;;;;30.52;43.55;101839.69;4149658;28;20030;-58
2022/07/05 06:47:16;;;;;;;4.88;4.05;;;;;;;30.46;43.29;101823.19;4149708;28;20470;-59
2022/07/05 06:49:17;;;;;;;4.32;3.92;;;;;;;30.52;43.70;101838.84;4149393;28;20422;-59
2022/07/05 06:51:18;;;;;;;4.53;3.70;;;;;;;30.52;43.64;101838.84;4150363;28;20041;-59
2022/07/05 06:53:23;;;;;;;3.85;3.42;;;;;;;30.51;43.35;101842.81;4149524;28;20042;-59
2022/07/05 06:55:25;;;;;;;4.90;4.13;;;;;;;30.51;43.10;101843.66;4149989;28;20116;-60
2022/07/05 06:57:30;;;;;;;3.95;3.55;;;;;;;30.46;43.52;101840.13;4149703;28;20034;-59
2022/07/05 06:59:31;;;;;;;4.75;3.65;;;;;;;30.51;43.37;101845.63;4149499;28;20096;-59
2022/07/05 07:01:32;;;;;;;5.32;4.18;;;;;;;30.50;43.42;101846.81;4149571;28;20091;-60
2022/07/05 07:03:34;;;;;;;4.00;3.60;;;;;;;30.51;43.29;101837.16;4150324;28;20073;-59
2022/07/05 07:05:35;;;;;;;4.45;3.78;;;;;;;30.50;43.46;101846.81;4149897;28;20096;-58
2022/07/05 07:10:01;;;;;;;4.35;3.95;;;;;;;30.50;43.33;101846.81;4150984;28;20104;-59
2022/07/05 07:12:02;;;;;;;4.63;4.13;;;;;;;30.50;43.19;101841.16;4147184;28;20100;-59
2022/07/05 07:14:04;;;;;;;4.05;3.55;;;;;;;30.49;43.43;101833.84;4149655;28;20045;-59
2022/07/05 07:16:05;;;;;;;3.88;3.40;;;;;;;30.49;43.55;101828.19;4149100;28;20108;-59
2022/07/05 07:18:07;;;;;;;4.30;3.90;;;;;;;30.43;43.28;101826.69;4149225;28;20042;-59
2022/07/05 07:20:08;;;;;;;4.25;3.85;;;;;;;30.48;43.42;101826.53;4149117;28;20038;-59
2022/07/05 07:22:19;;;;;;;4.10;3.75;;;;;;;30.48;43.46;101833.03;4149428;28;20065;-60
2022/07/05 07:24:23;;;;;;;5.03;4.20;;;;;;;30.47;43.47;101830.50;4149091;28;20180;-60
2022/07/05 07:26:24;;;;;;;4.80;4.30;;;;;;;30.48;43.40;101832.19;4149166;28;20046;-59
2022/07/05 07:28:26;;;;;;;4.18;3.70;;;;;;;30.48;43.62;101837.84;4148067;28;20091;-59
2022/07/05 07:30:28;;;;;;;4.22;3.90;;;;;;;30.47;43.36;101841.78;4148521;28;20096;-59
2022/07/05 07:32:32;;;;;;;4.35;3.90;;;;;;;30.47;43.60;101841.78;4148969;28;20117;-59
2022/07/05 07:34:34;;;;;;;4.05;3.63;;;;;;;30.46;43.52;101837.31;4149491;28;20077;-59
2022/07/05 07:36:35;;;;;;;4.57;3.97;;;;;;;30.46;43.69;101849.44;4148831;28;20096;-59
2022/07/05 07:38:39;;;;;;;4.20;3.80;;;;;;;30.46;43.19;101840.13;4148929;28;20359;-59
2022/07/05 07:40:41;;;;;;;5.30;4.00;;;;;;;30.46;43.52;101840.13;4149353;28;20093;-59
2022/07/05 07:42:42;;;;;;;4.20;3.80;;;;;;;30.47;43.42;101841.78;4148862;28;20100;-59
2022/07/05 07:44:44;;;;;;;4.32;3.92;;;;;;;30.45;43.29;101833.66;4148768;28;20042;-59
2022/07/05 07:46:48;;;;;;;3.67;3.38;;;;;;;30.45;43.41;101839.31;4148925;28;20038;-59
2022/07/05 07:48:49;;;;;;;4.20;3.80;;;;;;;30.46;43.38;101834.50;4149115;28;20165;-60
2022/07/05 07:50:51;;;;;;;3.83;3.53;;;;;;;30.45;43.23;101844.97;4149238;28;20041;-59
2022/07/05 07:52:55;;;;;;;5.18;4.25;;;;;;;30.45;43.14;101844.13;4149204;28;20421;-60
2022/07/05 07:54:56;;;;;;;4.10;3.70;;;;;;;30.45;43.14;101844.13;4149139;28;20448;-59
2022/07/05 07:56:59;;;;;;;4.10;3.60;;;;;;;30.44;43.36;101848.94;4148689;28;20108;-59
2022/07/05 07:59:00;;;;;;;4.05;3.65;;;;;;;30.45;43.26;101855.41;4148168;28;20104;-60
2022/07/05 08:01:02;;;;;;;3.75;3.35;;;;;;;30.45;43.33;101846.94;4148443;28;20103;-60
2022/07/05 08:03:03;;;;;;;3.88;3.58;;;;;;;30.43;43.29;101838.81;4148104;28;20042;-60
2022/07/05 08:05:05;;;;;;;4.28;3.88;;;;;;;30.44;43.37;101845.28;4147057;28;20041;-60
2022/07/05 08:07:06;;;;;;;4.32;3.60;;;;;;;30.42;43.24;101845.59;4148809;28;20045;-59
2022/07/05 08:09:08;;;;;;;4.10;3.70;;;;;;;30.43;43.60;101849.28;4146989;28;20100;-60
2022/07/05 08:11:11;;;;;;;3.85;3.55;;;;;;;30.42;43.44;101844.78;4148328;28;20038;-60
2022/07/05 08:13:12;;;;;;;3.90;3.60;;;;;;;30.42;43.60;101848.41;4148366;28;20049;-60
2022/07/05 08:15:14;;;;;;;4.30;3.45;;;;;;;30.43;43.72;101849.28;4148726;28;20041;-60
2022/07/05 08:17:16;;;;;;;3.90;3.50;;;;;;;30.38;43.54;101836.13;4148672;28;20061;-59
2022/07/05 08:21:41;;;;;;;4.47;3.45;;;;;;;30.41;43.48;101843.94;4149987;28;20100;-60
2022/07/05 08:23:42;;;;;;;4.20;3.80;;;;;;;30.42;43.61;101842.78;4148227;28;20033;-59
2022/07/05 08:25:44;;;;;;;3.80;3.40;;;;;;;30.40;43.45;101835.81;4148469;28;20065;-60
2022/07/05 08:27:45;;;;;;;4.10;3.50;;;;;;;30.39;43.49;101834.97;4147931;28;20108;-59
2022/07/05 08:29:47;;;;;;;4.22;3.33;;;;;;;30.42;43.34;101836.28;4148306;28;20104;-59
2022/07/05 08:31:50;;;;;;;3.90;3.47;;;;;;;30.38;43.76;101834.13;4148096;28;20096;-60
2022/07/05 08:33:54;;;;;;;4.03;3.63;;;;;;;30.41;43.46;101835.47;4148020;28;20038;-59
2022/07/05 08:35:55;;;;;;;3.90;3.42;;;;;;;30.40;43.69;101836.63;4148683;28;20204;-59
2022/07/05 08:37:57;;;;;;;3.67;3.38;;;;;;;30.41;43.30;101832.63;4148071;28;20041;-60
2022/07/05 08:39:58;;;;;;;3.45;3.13;;;;;;;30.40;43.63;101832.97;4163420;28;20045;-59
2022/07/05 08:42:00;;;;;;;5.88;3.85;;;;;;;30.31;43.49;101816.81;4147977;28;20066;-59
2022/07/05 08:44:03;;;;;;;4.53;3.85;;;;;;;30.38;43.51;101831.31;4147981;28;20461;-60
2022/07/05 08:46:08;;;;;;;4.15;3.72;;;;;;;30.38;43.33;101834.13;4148376;28;20092;-59
2022/07/05 08:48:09;;;;;;;;;;;;;;;30.37;43.59;101828.81;4148020;28;20046;-59
2022/07/05 08:50:14;;;;;;;4.13;3.72;;;;;;;30.34;43.61;101804.88;4148689;28;19917;-59
2022/07/05 08:52:15;;;;;;;;;;;;;;;30.40;43.38;101816.88;4145586;28;20099;-59
2022/07/05 08:54:17;;;;;;;4.32;3.80;;;;;;;30.45;43.26;101821.53;4148303;28;19921;-59
2022/07/05 08:56:21;;;;;;;4.38;3.83;;;;;;;30.43;43.30;101824.69;4147823;28;20107;-59
2022/07/05 08:58:25;;;;;;;4.22;3.83;;;;;;;30.43;43.43;101835.16;4148188;28;20485;-58
2022/07/05 09:00:27;;;;;;;3.92;3.42;;;;;;;30.41;43.39;101831.81;4147882;28;20034;-59
2022/07/05 09:02:28;;;;;;;3.95;3.45;;;;;;;30.40;43.55;101836.63;4147808;28;20037;-58
2022/07/05 09:04:37;;;;;;;3.65;3.28;;;;;;;30.40;43.29;101844.28;4148434;28;20092;-59
2022/07/05 09:06:39;;;;;;;4.63;3.30;;;;;;;30.32;43.45;101838.25;4147818;28;20073;-58
2022/07/05 09:08:47;;;;;;;4.47;3.90;;;;;;;30.37;43.52;101849.38;4147633;28;20104;-59
2022/07/05 09:10:53;;;;;;;4.95;3.95;;;;;;;30.37;43.34;101854.22;4148444;28;20456;-59
2022/07/05 09:12:56;;;;;;;3.63;3.33;;;;;;;30.36;43.58;101847.72;4147796;28;20165;-59
2022/07/05 09:14:57;;;;;;;3.78;3.38;;;;;;;30.36;43.13;101836.44;4147462;28;20104;-59
2022/07/05 09:17:01;;;;;;;4.57;3.78;;;;;;;30.36;43.24;101842.09;4147932;28;20050;-58
2022/07/05 09:19:07;;;;;;;4.25;3.63;;;;;;;30.34;43.63;101844.41;4147193;28;20100;-59
2022/07/05 09:21:19;;;;;;;3.90;3.50;;;;;;;30.34;43.67;101847.25;4147717;28;20387;-59
2022/07/05 09:23:21;;;;;;;3.95;3.42;;;;;;;30.35;43.57;101848.91;4147817;28;20034;-59
2022/07/05 09:25:24;;;;;;;4.13;3.55;;;;;;;30.33;43.47;101842.75;4147932;28;20363;-59
2022/07/05 09:27:31;;;;;;;4.07;3.50;;;;;;;30.33;43.73;101842.75;4147751;28;20560;-59
2022/07/05 09:29:35;;;;;;;3.80;3.50;;;;;;;30.32;43.64;101843.06;4147533;28;20030;-60
2022/07/05 09:31:39;;;;;;;3.50;3.20;;;;;;;30.32;43.82;101835.41;4147681;28;20042;-60
2022/07/05 09:33:50;;;;;;;5.90;3.93;;;;;;;30.32;43.43;101829.78;4147789;28;20123;-59
2022/07/05 09:35:57;;;;;;;4.00;3.60;;;;;;;30.32;43.62;101841.06;4147612;28;20042;-60
2022/07/05 09:38:03;;;;;;;3.53;3.15;;;;;;;30.29;43.50;101836.09;4147381;28;20104;-59
2022/07/05 09:40:04;;;;;;;4.25;3.78;;;;;;;30.34;43.68;101847.25;4149888;28;20108;-59